createdAt,value
2019-03-30T00:00:04.618Z,91.101074
2019-03-30T00:00:16.444Z,91.204834
2019-03-30T00:00:28.281Z,91.308594
2019-03-30T00:00:40.121Z,91.412354
2019-03-30T00:00:51.953Z,91.516113
2019-03-30T00:01:03.783Z,91.619873
2019-03-30T00:01:15.618Z,91.723633
2019-03-30T00:01:27.508Z,91.827393
2019-03-30T00:01:39.350Z,91.827393
2019-03-30T00:01:51.185Z,91.931152
2019-03-30T00:02:03.016Z,92.034912
2019-03-30T00:02:14.849Z,92.034912
2019-03-30T00:02:26.675Z,92.138672
2019-03-30T00:02:38.496Z,92.242432
2019-03-30T00:02:50.327Z,92.242432
2019-03-30T00:03:02.202Z,92.242432
2019-03-30T00:03:13.994Z,92.346191
2019-03-30T00:03:25.826Z,92.449951
2019-03-30T00:03:37.658Z,92.449951
2019-03-30T00:03:50.483Z,92.449951
2019-03-30T00:04:02.328Z,92.553711
2019-03-30T00:04:14.157Z,92.553711
2019-03-30T00:04:25.988Z,92.553711
2019-03-30T00:04:37.816Z,92.553711
2019-03-30T00:04:49.645Z,92.657471
2019-03-30T00:05:01.475Z,92.657471
2019-03-30T00:05:13.313Z,92.657471
2019-03-30T00:05:25.148Z,92.76123
2019-03-30T00:05:36.982Z,92.76123
2019-03-30T00:05:48.823Z,92.76123
2019-03-30T00:06:00.659Z,92.76123
2019-03-30T00:06:12.493Z,92.76123
2019-03-30T00:06:24.352Z,92.76123
2019-03-30T00:06:36.180Z,92.76123
2019-03-30T00:06:48.009Z,92.76123
2019-03-30T00:06:59.843Z,92.76123
2019-03-30T00:07:11.673Z,92.718506
2019-03-30T00:07:23.507Z,92.718506
2019-03-30T00:07:35.340Z,92.718506
2019-03-30T00:07:47.231Z,92.718506
2019-03-30T00:07:59.012Z,92.718506
2019-03-30T00:08:10.852Z,92.718506
2019-03-30T00:08:22.683Z,92.718506
2019-03-30T00:08:34.521Z,92.718506
2019-03-30T00:08:46.358Z,92.718506
2019-03-30T00:08:58.198Z,92.718506
2019-03-30T00:09:10.034Z,92.718506
2019-03-30T00:09:21.864Z,92.718506
2019-03-30T00:09:33.698Z,92.718506
2019-03-30T00:09:45.675Z,92.614746
2019-03-30T00:09:57.514Z,92.614746
2019-03-30T00:10:09.343Z,92.614746
2019-03-30T00:10:21.171Z,92.510986
2019-03-30T00:10:33.003Z,92.510986
2019-03-30T00:10:44.841Z,92.510986
2019-03-30T00:10:56.672Z,92.407227
2019-03-30T00:11:08.510Z,92.407227
2019-03-30T00:11:20.352Z,92.303467
2019-03-30T00:11:32.182Z,92.199707
2019-03-30T00:11:44.011Z,92.199707
2019-03-30T00:11:57.792Z,92.095947
2019-03-30T00:12:07.677Z,91.992188
2019-03-30T00:12:22.874Z,91.888428
2019-03-30T00:12:31.341Z,91.888428
2019-03-30T00:12:43.175Z,91.784668
2019-03-30T00:12:55.013Z,91.680908
2019-03-30T00:13:06.850Z,91.680908
2019-03-30T00:13:18.723Z,91.577148
2019-03-30T00:13:31.505Z,91.473389
2019-03-30T00:13:43.327Z,91.369629
2019-03-30T00:13:55.169Z,91.369629
2019-03-30T00:14:07.004Z,91.369629
2019-03-30T00:14:18.835Z,91.473389
2019-03-30T00:14:30.667Z,91.473389
2019-03-30T00:14:42.507Z,91.473389
2019-03-30T00:14:54.408Z,91.577148
2019-03-30T00:15:06.242Z,91.577148
2019-03-30T00:15:18.082Z,91.577148
2019-03-30T00:15:29.908Z,91.680908
2019-03-30T00:15:41.745Z,91.680908
2019-03-30T00:15:53.574Z,91.680908
2019-03-30T00:16:05.405Z,91.784668
2019-03-30T00:16:17.235Z,91.784668
2019-03-30T00:16:29.073Z,91.888428
2019-03-30T00:16:40.897Z,91.888428
2019-03-30T00:16:52.736Z,91.992188
2019-03-30T00:17:04.568Z,91.992188
2019-03-30T00:17:16.397Z,91.992188
2019-03-30T00:17:28.231Z,92.095947
2019-03-30T00:17:40.065Z,92.095947
2019-03-30T00:17:51.894Z,92.095947
2019-03-30T00:18:03.737Z,92.199707
2019-03-30T00:18:15.566Z,92.199707
2019-03-30T00:18:27.400Z,92.303467
2019-03-30T00:18:41.281Z,92.407227
2019-03-30T00:18:51.055Z,92.407227
2019-03-30T00:19:02.887Z,92.510986
2019-03-30T00:19:14.721Z,92.510986
2019-03-30T00:19:34.584Z,92.614746
2019-03-30T00:19:39.344Z,92.614746
2019-03-30T00:19:51.201Z,92.718506
2019-03-30T00:20:03.038Z,92.718506
2019-03-30T00:20:14.941Z,92.718506
2019-03-30T00:20:26.773Z,92.822266
2019-03-30T00:20:38.616Z,92.822266
2019-03-30T00:20:50.443Z,92.822266
2019-03-30T00:21:02.280Z,92.822266
2019-03-30T00:21:14.101Z,92.926025
2019-03-30T00:21:25.936Z,93.023682
2019-03-30T00:21:37.778Z,93.023682
2019-03-30T00:21:49.610Z,93.023682
2019-03-30T00:22:01.440Z,93.127441
2019-03-30T00:22:14.263Z,93.127441
2019-03-30T00:22:26.097Z,93.231201
2019-03-30T00:22:37.925Z,93.231201
2019-03-30T00:22:49.755Z,93.231201
2019-03-30T00:23:01.587Z,93.231201
2019-03-30T00:23:13.417Z,93.231201
2019-03-30T00:23:25.252Z,93.231201
2019-03-30T00:23:37.078Z,93.231201
2019-03-30T00:23:48.916Z,93.231201
2019-03-30T00:24:00.756Z,93.334961
2019-03-30T00:24:12.580Z,93.334961
2019-03-30T00:24:24.419Z,93.334961
2019-03-30T00:24:36.250Z,93.438721
2019-03-30T00:24:48.085Z,93.438721
2019-03-30T00:24:59.927Z,93.54248
2019-03-30T00:25:11.786Z,93.64624
2019-03-30T00:25:30.951Z,93.64624
2019-03-30T00:25:43.773Z,93.75
2019-03-30T00:25:55.603Z,93.75
2019-03-30T00:26:07.505Z,93.75
2019-03-30T00:26:19.329Z,93.75
2019-03-30T00:26:31.161Z,93.75
2019-03-30T00:26:42.998Z,93.75
2019-03-30T00:26:54.832Z,93.75
2019-03-30T00:27:06.662Z,93.75
2019-03-30T00:27:18.494Z,93.75
2019-03-30T00:27:30.328Z,93.75
2019-03-30T00:27:42.153Z,93.75
2019-03-30T00:27:53.983Z,93.75
2019-03-30T00:28:05.822Z,93.75
2019-03-30T00:28:17.659Z,93.75
2019-03-30T00:28:29.487Z,93.75
2019-03-30T00:28:41.326Z,93.64624
2019-03-30T00:28:53.152Z,93.64624
2019-03-30T00:29:04.989Z,93.64624
2019-03-30T00:29:16.815Z,93.54248
2019-03-30T00:29:28.652Z,93.54248
2019-03-30T00:29:40.476Z,93.54248
2019-03-30T00:29:52.323Z,93.54248
2019-03-30T00:30:04.159Z,93.54248
2019-03-30T00:30:18.962Z,93.54248
2019-03-30T00:30:27.809Z,93.438721
2019-03-30T00:30:39.650Z,93.438721
2019-03-30T00:30:51.489Z,93.438721
2019-03-30T00:31:03.354Z,93.438721
2019-03-30T00:31:15.187Z,93.334961
2019-03-30T00:31:27.023Z,93.334961
2019-03-30T00:31:38.848Z,93.334961
2019-03-30T00:31:50.820Z,93.292236
2019-03-30T00:32:02.656Z,93.334961
2019-03-30T00:32:14.495Z,93.334961
2019-03-30T00:32:26.333Z,93.292236
2019-03-30T00:32:38.164Z,93.292236
2019-03-30T00:32:50.001Z,93.231201
2019-03-30T00:33:01.835Z,93.231201
2019-03-30T00:33:13.672Z,93.231201
2019-03-30T00:33:25.509Z,93.292236
2019-03-30T00:33:37.342Z,93.292236
2019-03-30T00:33:49.177Z,93.188477
2019-03-30T00:34:01.009Z,93.188477
2019-03-30T00:34:12.844Z,93.084717
2019-03-30T00:34:24.679Z,93.084717
2019-03-30T00:34:36.515Z,93.084717
2019-03-30T00:34:48.350Z,93.084717
2019-03-30T00:35:00.387Z,92.980957
2019-03-30T00:35:12.019Z,92.883301
2019-03-30T00:35:23.855Z,92.883301
2019-03-30T00:35:35.688Z,92.883301
2019-03-30T00:35:47.516Z,92.779541
2019-03-30T00:35:59.352Z,92.736816
2019-03-30T00:36:11.185Z,92.633057
2019-03-30T00:36:23.019Z,92.529297
2019-03-30T00:36:34.845Z,92.425537
2019-03-30T00:36:47.160Z,92.321777
2019-03-30T00:36:58.658Z,92.218018
2019-03-30T00:37:10.493Z,92.114258
2019-03-30T00:37:22.324Z,92.010498
2019-03-30T00:37:34.161Z,91.802979
2019-03-30T00:37:45.994Z,91.595459
2019-03-30T00:37:57.839Z,91.491699
2019-03-30T00:38:09.674Z,91.387939
2019-03-30T00:38:21.489Z,91.28418
2019-03-30T00:38:33.318Z,91.18042
2019-03-30T00:38:45.145Z,90.9729
2019-03-30T00:38:56.983Z,90.869141
2019-03-30T00:39:08.820Z,90.661621
2019-03-30T00:39:20.651Z,90.454102
2019-03-30T00:39:32.485Z,90.246582
2019-03-30T00:39:44.325Z,90.039062
2019-03-30T00:39:56.159Z,89.831543
2019-03-30T00:40:07.989Z,89.624023
2019-03-30T00:40:19.823Z,89.624023
2019-03-30T00:40:31.655Z,89.520264
2019-03-30T00:40:43.489Z,89.520264
2019-03-30T00:40:55.330Z,89.416504
2019-03-30T00:41:07.154Z,89.416504
2019-03-30T00:41:18.983Z,89.416504
2019-03-30T00:41:31.803Z,89.416504
2019-03-30T00:41:43.638Z,89.416504
2019-03-30T00:41:55.634Z,89.416504
2019-03-30T00:42:07.469Z,89.416504
2019-03-30T00:42:19.302Z,89.520264
2019-03-30T00:42:31.133Z,89.520264
2019-03-30T00:42:42.968Z,89.624023
2019-03-30T00:42:54.797Z,89.727783
2019-03-30T00:43:06.640Z,89.727783
2019-03-30T00:43:18.458Z,89.831543
2019-03-30T00:43:30.288Z,89.831543
2019-03-30T00:43:42.121Z,89.831543
2019-03-30T00:43:53.956Z,89.935303
2019-03-30T00:44:05.795Z,89.935303
2019-03-30T00:44:17.626Z,89.935303
2019-03-30T00:44:29.457Z,89.935303
2019-03-30T00:44:41.287Z,89.935303
2019-03-30T00:44:53.119Z,89.935303
2019-03-30T00:45:04.955Z,89.935303
2019-03-30T00:45:16.787Z,89.935303
2019-03-30T00:45:28.627Z,89.935303
2019-03-30T00:45:40.466Z,89.935303
2019-03-30T00:45:52.294Z,89.935303
2019-03-30T00:46:04.129Z,89.831543
2019-03-30T00:46:15.951Z,89.935303
2019-03-30T00:46:27.776Z,89.935303
2019-03-30T00:46:39.604Z,89.935303
2019-03-30T00:46:51.473Z,89.831543
2019-03-30T00:47:03.305Z,89.831543
2019-03-30T00:47:15.139Z,89.831543
2019-03-30T00:47:26.954Z,89.831543
2019-03-30T00:47:38.784Z,89.978027
2019-03-30T00:47:50.617Z,89.978027
2019-03-30T00:48:02.453Z,89.978027
2019-03-30T00:48:14.318Z,89.978027
2019-03-30T00:48:26.150Z,90.081787
2019-03-30T00:48:37.984Z,90.081787
2019-03-30T00:48:49.826Z,90.185547
2019-03-30T00:49:01.648Z,90.185547
2019-03-30T00:49:13.478Z,90.289307
2019-03-30T00:49:25.375Z,90.289307
2019-03-30T00:49:48.327Z,90.393066
2019-03-30T00:49:50.235Z,90.393066
2019-03-30T00:50:01.801Z,90.496826
2019-03-30T00:50:13.622Z,90.496826
2019-03-30T00:50:25.456Z,90.600586
2019-03-30T00:50:37.290Z,90.704346
2019-03-30T00:50:49.153Z,90.704346
2019-03-30T00:51:01.981Z,90.808105
2019-03-30T00:51:13.821Z,90.911865
2019-03-30T00:51:25.657Z,90.911865
2019-03-30T00:51:37.485Z,90.911865
2019-03-30T00:51:49.316Z,91.015625
2019-03-30T00:52:01.151Z,91.015625
2019-03-30T00:52:13.023Z,91.015625
2019-03-30T00:52:24.846Z,91.119385
2019-03-30T00:52:36.680Z,91.223145
2019-03-30T00:52:48.514Z,91.326904
2019-03-30T00:53:00.345Z,91.326904
2019-03-30T00:53:12.176Z,91.326904
2019-03-30T00:53:24.006Z,91.430664
2019-03-30T00:53:35.854Z,91.326904
2019-03-30T00:53:47.673Z,91.326904
2019-03-30T00:53:59.519Z,91.223145
2019-03-30T00:54:11.381Z,91.223145
2019-03-30T00:54:23.219Z,91.223145
2019-03-30T00:54:35.118Z,91.119385
2019-03-30T00:54:47.191Z,91.015625
2019-03-30T00:54:58.712Z,90.911865
2019-03-30T00:55:10.540Z,90.911865
2019-03-30T00:55:22.379Z,90.808105
2019-03-30T00:55:34.220Z,90.808105
2019-03-30T00:55:46.046Z,90.808105
2019-03-30T00:55:57.882Z,90.704346
2019-03-30T00:56:09.716Z,90.704346
2019-03-30T00:56:21.546Z,90.704346
2019-03-30T00:56:33.385Z,90.600586
2019-03-30T00:56:45.219Z,90.600586
2019-03-30T00:56:57.058Z,90.496826
2019-03-30T00:57:08.895Z,90.496826
2019-03-30T00:57:20.727Z,90.393066
2019-03-30T00:57:32.570Z,90.393066
2019-03-30T00:57:44.428Z,90.393066
2019-03-30T00:57:56.268Z,90.393066
2019-03-30T00:58:09.091Z,90.496826
2019-03-30T00:58:20.935Z,90.496826
2019-03-30T00:58:32.751Z,90.393066
2019-03-30T00:58:44.586Z,90.393066
2019-03-30T00:58:56.427Z,90.289307
2019-03-30T00:59:08.257Z,90.185547
2019-03-30T00:59:20.092Z,90.185547
2019-03-30T00:59:31.928Z,90.185547
2019-03-30T00:59:43.759Z,90.185547
2019-03-30T00:59:55.595Z,90.185547
2019-03-30T01:00:07.462Z,90.185547
2019-03-30T01:00:19.290Z,90.081787
2019-03-30T01:00:31.132Z,90.081787
2019-03-30T01:00:42.952Z,89.978027
2019-03-30T01:00:54.782Z,89.978027
2019-03-30T01:01:06.618Z,89.978027
2019-03-30T01:01:18.512Z,89.874268
2019-03-30T01:01:30.348Z,89.770508
2019-03-30T01:01:42.179Z,89.624023
2019-03-30T01:01:54.015Z,89.624023
2019-03-30T01:02:05.850Z,89.624023
2019-03-30T01:02:17.675Z,89.624023
2019-03-30T01:02:29.514Z,89.520264
2019-03-30T01:02:41.351Z,89.416504
2019-03-30T01:02:53.178Z,89.416504
2019-03-30T01:03:05.042Z,89.416504
2019-03-30T01:03:16.876Z,89.312744
2019-03-30T01:03:28.723Z,89.312744
2019-03-30T01:03:40.554Z,89.312744
2019-03-30T01:03:52.388Z,89.312744
2019-03-30T01:04:04.220Z,89.208984
2019-03-30T01:04:16.051Z,89.208984
2019-03-30T01:04:27.883Z,89.208984
2019-03-30T01:04:39.713Z,89.105225
2019-03-30T01:04:51.544Z,89.001465
2019-03-30T01:05:03.376Z,89.001465
2019-03-30T01:05:15.211Z,88.897705
2019-03-30T01:05:27.042Z,88.793945
2019-03-30T01:05:38.876Z,88.690186
2019-03-30T01:05:50.710Z,88.482666
2019-03-30T01:06:02.536Z,88.38501
2019-03-30T01:06:14.371Z,88.38501
2019-03-30T01:06:26.207Z,88.28125
2019-03-30T01:06:38.031Z,88.28125
2019-03-30T01:06:49.863Z,88.28125
2019-03-30T01:07:01.700Z,88.28125
2019-03-30T01:07:13.537Z,88.17749
2019-03-30T01:07:25.367Z,88.17749
2019-03-30T01:07:37.228Z,88.17749
2019-03-30T01:07:49.061Z,88.17749
2019-03-30T01:08:00.897Z,88.17749
2019-03-30T01:08:12.728Z,88.214111
2019-03-30T01:08:24.570Z,88.214111
2019-03-30T01:08:36.391Z,88.110352
2019-03-30T01:08:48.222Z,88.110352
2019-03-30T01:09:00.059Z,88.006592
2019-03-30T01:09:11.890Z,88.110352
2019-03-30T01:09:23.717Z,88.110352
2019-03-30T01:09:35.555Z,88.110352
2019-03-30T01:09:47.387Z,88.214111
2019-03-30T01:09:59.228Z,88.317871
2019-03-30T01:10:11.075Z,88.421631
2019-03-30T01:10:22.914Z,88.421631
2019-03-30T01:10:34.764Z,88.421631
2019-03-30T01:10:46.593Z,88.525391
2019-03-30T01:10:58.428Z,88.525391
2019-03-30T01:11:10.262Z,88.62915
2019-03-30T01:11:22.099Z,88.83667
2019-03-30T01:11:33.940Z,88.94043
2019-03-30T01:11:45.773Z,89.044189
2019-03-30T01:11:57.611Z,89.147949
2019-03-30T01:12:09.448Z,89.251709
2019-03-30T01:12:21.275Z,89.459229
2019-03-30T01:12:33.109Z,89.459229
2019-03-30T01:12:44.942Z,89.562988
2019-03-30T01:12:56.773Z,89.562988
2019-03-30T01:13:08.602Z,89.666748
2019-03-30T01:13:20.442Z,89.666748
2019-03-30T01:13:32.275Z,89.770508
2019-03-30T01:13:44.114Z,89.770508
2019-03-30T01:13:55.945Z,89.770508
2019-03-30T01:14:07.779Z,89.770508
2019-03-30T01:14:19.615Z,89.874268
2019-03-30T01:14:31.455Z,89.978027
2019-03-30T01:14:43.290Z,90.081787
2019-03-30T01:14:55.116Z,90.081787
2019-03-30T01:15:06.989Z,90.185547
2019-03-30T01:15:18.822Z,90.185547
2019-03-30T01:15:30.654Z,90.289307
2019-03-30T01:15:42.488Z,90.393066
2019-03-30T01:15:54.325Z,90.496826
2019-03-30T01:16:06.163Z,90.496826
2019-03-30T01:16:19.057Z,90.600586
2019-03-30T01:16:30.895Z,90.600586
2019-03-30T01:16:42.735Z,90.74707
2019-03-30T01:16:54.567Z,90.74707
2019-03-30T01:17:06.384Z,90.85083
2019-03-30T01:17:18.224Z,90.95459
2019-03-30T01:17:30.059Z,91.05835
2019-03-30T01:17:41.892Z,91.162109
2019-03-30T01:17:53.728Z,91.223145
2019-03-30T01:18:05.558Z,91.430664
2019-03-30T01:18:17.387Z,91.534424
2019-03-30T01:18:29.223Z,91.638184
2019-03-30T01:18:41.063Z,91.638184
2019-03-30T01:18:52.891Z,91.638184
2019-03-30T01:19:04.721Z,91.741943
2019-03-30T01:19:16.552Z,91.741943
2019-03-30T01:19:28.386Z,91.741943
2019-03-30T01:19:40.220Z,91.741943
2019-03-30T01:20:02.562Z,91.741943
2019-03-30T01:20:05.830Z,91.741943
2019-03-30T01:20:17.664Z,91.680908
2019-03-30T01:20:29.502Z,91.680908
2019-03-30T01:20:41.346Z,91.680908
2019-03-30T01:20:53.178Z,91.577148
2019-03-30T01:21:05.014Z,91.577148
2019-03-30T01:21:16.911Z,91.577148
2019-03-30T01:21:28.743Z,91.577148
2019-03-30T01:21:40.578Z,91.680908
2019-03-30T01:21:52.411Z,91.680908
2019-03-30T01:22:04.237Z,91.680908
2019-03-30T01:22:16.070Z,91.680908
2019-03-30T01:22:27.907Z,91.784668
2019-03-30T01:22:39.738Z,91.784668
2019-03-30T01:22:51.568Z,91.888428
2019-03-30T01:23:03.405Z,91.992188
2019-03-30T01:23:15.238Z,92.095947
2019-03-30T01:23:27.070Z,92.156982
2019-03-30T01:23:38.909Z,92.156982
2019-03-30T01:23:50.746Z,92.260742
2019-03-30T01:24:02.571Z,92.260742
2019-03-30T01:24:14.404Z,92.260742
2019-03-30T01:24:26.239Z,92.260742
2019-03-30T01:24:38.075Z,92.260742
2019-03-30T01:24:49.914Z,92.260742
2019-03-30T01:25:01.744Z,92.260742
2019-03-30T01:25:13.574Z,92.156982
2019-03-30T01:25:25.410Z,92.156982
2019-03-30T01:25:37.243Z,92.053223
2019-03-30T01:25:49.084Z,92.053223
2019-03-30T01:26:00.916Z,91.949463
2019-03-30T01:26:12.814Z,91.949463
2019-03-30T01:26:24.666Z,91.888428
2019-03-30T01:26:36.504Z,91.784668
2019-03-30T01:26:48.343Z,91.680908
2019-03-30T01:27:00.181Z,91.577148
2019-03-30T01:27:12.010Z,91.577148
2019-03-30T01:27:23.846Z,91.577148
2019-03-30T01:27:35.676Z,91.577148
2019-03-30T01:27:47.512Z,91.577148
2019-03-30T01:27:59.343Z,91.534424
2019-03-30T01:28:11.174Z,91.534424
2019-03-30T01:28:23.008Z,91.534424
2019-03-30T01:28:34.843Z,91.534424
2019-03-30T01:28:46.682Z,91.534424
2019-03-30T01:28:58.514Z,91.534424
2019-03-30T01:29:10.341Z,91.534424
2019-03-30T01:29:22.177Z,91.534424
2019-03-30T01:29:34.011Z,91.534424
2019-03-30T01:29:45.847Z,91.638184
2019-03-30T01:29:57.679Z,91.638184
2019-03-30T01:30:22.369Z,91.638184
2019-03-30T01:30:23.502Z,91.534424
2019-03-30T01:30:34.124Z,91.534424
2019-03-30T01:30:45.955Z,91.430664
2019-03-30T01:30:57.793Z,91.430664
2019-03-30T01:31:09.633Z,91.326904
2019-03-30T01:31:21.497Z,91.223145
2019-03-30T01:31:33.324Z,91.119385
2019-03-30T01:31:45.148Z,90.911865
2019-03-30T01:31:56.981Z,90.808105
2019-03-30T01:32:08.906Z,90.808105
2019-03-30T01:32:20.647Z,90.808105
2019-03-30T01:32:34.966Z,90.808105
2019-03-30T01:32:44.315Z,90.911865
2019-03-30T01:32:56.140Z,91.015625
2019-03-30T01:33:07.988Z,91.015625
2019-03-30T01:33:19.827Z,91.223145
2019-03-30T01:33:31.662Z,91.326904
2019-03-30T01:33:43.495Z,91.430664
2019-03-30T01:33:55.326Z,91.534424
2019-03-30T01:34:07.158Z,91.638184
2019-03-30T01:34:18.992Z,91.741943
2019-03-30T01:34:30.824Z,91.888428
2019-03-30T01:34:42.657Z,91.992188
2019-03-30T01:34:54.497Z,91.992188
2019-03-30T01:35:06.353Z,91.992188
2019-03-30T01:35:18.271Z,92.095947
2019-03-30T01:35:30.001Z,92.095947
2019-03-30T01:35:41.839Z,92.095947
2019-03-30T01:35:53.672Z,92.199707
2019-03-30T01:36:05.503Z,92.199707
2019-03-30T01:36:17.346Z,92.199707
2019-03-30T01:36:29.192Z,92.199707
2019-03-30T01:36:41.022Z,92.303467
2019-03-30T01:36:52.858Z,92.303467
2019-03-30T01:37:04.687Z,92.303467
2019-03-30T01:37:16.521Z,92.407227
2019-03-30T01:37:28.357Z,92.407227
2019-03-30T01:37:40.189Z,92.407227
2019-03-30T01:37:52.048Z,92.510986
2019-03-30T01:38:04.870Z,92.510986
2019-03-30T01:38:16.701Z,92.614746
2019-03-30T01:38:28.557Z,92.614746
2019-03-30T01:38:40.393Z,92.614746
2019-03-30T01:38:52.225Z,92.718506
2019-03-30T01:39:04.063Z,92.718506
2019-03-30T01:39:15.898Z,92.822266
2019-03-30T01:39:27.732Z,92.926025
2019-03-30T01:39:39.564Z,92.926025
2019-03-30T01:39:51.389Z,93.023682
2019-03-30T01:40:03.214Z,93.023682
2019-03-30T01:40:15.053Z,93.127441
2019-03-30T01:40:26.884Z,93.127441
2019-03-30T01:40:38.701Z,93.231201
2019-03-30T01:40:50.531Z,93.231201
2019-03-30T01:41:02.365Z,93.231201
2019-03-30T01:41:14.198Z,93.334961
2019-03-30T01:41:26.029Z,93.334961
2019-03-30T01:41:37.869Z,93.438721
2019-03-30T01:41:49.745Z,93.438721
2019-03-30T01:42:01.541Z,93.54248
2019-03-30T01:42:13.368Z,93.54248
2019-03-30T01:42:25.199Z,93.64624
2019-03-30T01:42:37.023Z,93.64624
2019-03-30T01:42:48.860Z,93.75
2019-03-30T01:43:00.718Z,93.75
2019-03-30T01:43:12.553Z,93.85376
2019-03-30T01:43:24.391Z,93.85376
2019-03-30T01:43:36.223Z,93.95752
2019-03-30T01:43:48.056Z,94.061279
2019-03-30T01:43:59.883Z,94.061279
2019-03-30T01:44:11.850Z,94.165039
2019-03-30T01:44:23.686Z,94.165039
2019-03-30T01:44:35.508Z,94.268799
2019-03-30T01:44:47.341Z,94.268799
2019-03-30T01:44:59.182Z,94.268799
2019-03-30T01:45:11.014Z,94.372559
2019-03-30T01:45:22.854Z,94.372559
2019-03-30T01:45:34.687Z,94.372559
2019-03-30T01:45:46.523Z,94.372559
2019-03-30T01:45:58.357Z,94.372559
2019-03-30T01:46:10.190Z,94.372559
2019-03-30T01:46:22.024Z,94.476318
2019-03-30T01:46:33.856Z,94.476318
2019-03-30T01:46:45.689Z,94.476318
2019-03-30T01:46:57.530Z,94.476318
2019-03-30T01:47:09.367Z,94.372559
2019-03-30T01:47:21.201Z,94.372559
2019-03-30T01:47:33.036Z,94.372559
2019-03-30T01:47:44.884Z,94.372559
2019-03-30T01:47:56.720Z,94.372559
2019-03-30T01:48:08.557Z,94.372559
2019-03-30T01:48:20.385Z,94.268799
2019-03-30T01:48:32.218Z,94.268799
2019-03-30T01:48:44.060Z,94.268799
2019-03-30T01:48:55.889Z,94.268799
2019-03-30T01:49:07.746Z,94.268799
2019-03-30T01:49:19.579Z,94.268799
2019-03-30T01:49:31.469Z,94.165039
2019-03-30T01:49:43.300Z,94.165039
2019-03-30T01:49:55.135Z,94.165039
2019-03-30T01:50:16.922Z,94.165039
2019-03-30T01:50:20.742Z,94.061279
2019-03-30T01:50:32.570Z,94.061279
2019-03-30T01:50:44.403Z,94.061279
2019-03-30T01:50:56.239Z,93.95752
2019-03-30T01:51:08.071Z,93.95752
2019-03-30T01:51:19.903Z,93.95752
2019-03-30T01:51:31.741Z,93.85376
2019-03-30T01:51:43.576Z,93.85376
2019-03-30T01:51:55.414Z,93.75
2019-03-30T01:52:07.244Z,93.75
2019-03-30T01:52:19.078Z,93.64624
2019-03-30T01:52:30.910Z,93.64624
2019-03-30T01:52:42.744Z,93.54248
2019-03-30T01:52:54.572Z,93.54248
2019-03-30T01:53:06.409Z,93.438721
2019-03-30T01:53:18.243Z,93.438721
2019-03-30T01:53:30.078Z,93.334961
2019-03-30T01:53:41.912Z,93.334961
2019-03-30T01:53:53.752Z,93.231201
2019-03-30T01:54:05.586Z,93.127441
2019-03-30T01:54:17.412Z,93.127441
2019-03-30T01:54:29.248Z,93.127441
2019-03-30T01:54:41.118Z,93.127441
2019-03-30T01:54:52.953Z,93.127441
2019-03-30T01:55:04.789Z,93.231201
2019-03-30T01:55:16.663Z,93.231201
2019-03-30T01:55:28.497Z,93.334961
2019-03-30T01:55:40.329Z,93.334961
2019-03-30T01:55:52.162Z,93.334961
2019-03-30T01:56:03.994Z,93.231201
2019-03-30T01:56:15.833Z,93.231201
2019-03-30T01:56:27.664Z,93.231201
2019-03-30T01:56:39.499Z,93.231201
2019-03-30T01:56:51.316Z,93.231201
2019-03-30T01:57:03.156Z,93.231201
2019-03-30T01:57:14.988Z,93.127441
2019-03-30T01:57:26.823Z,93.023682
2019-03-30T01:57:38.665Z,93.023682
2019-03-30T01:57:50.496Z,92.926025
2019-03-30T01:58:02.330Z,92.822266
2019-03-30T01:58:14.168Z,92.718506
2019-03-30T01:58:26.008Z,92.614746
2019-03-30T01:58:37.843Z,92.510986
2019-03-30T01:58:49.679Z,92.510986
2019-03-30T01:59:01.506Z,92.407227
2019-03-30T01:59:13.340Z,92.303467
2019-03-30T01:59:25.175Z,92.199707
2019-03-30T01:59:37.006Z,92.199707
2019-03-30T01:59:48.835Z,92.095947
2019-03-30T02:00:00.672Z,91.992188
2019-03-30T02:00:12.534Z,91.888428
2019-03-30T02:00:24.363Z,91.784668
2019-03-30T02:00:36.196Z,91.680908
2019-03-30T02:00:48.031Z,91.577148
2019-03-30T02:00:59.869Z,91.473389
2019-03-30T02:01:11.699Z,91.265869
2019-03-30T02:01:23.528Z,91.05835
2019-03-30T02:01:35.363Z,90.85083
2019-03-30T02:01:47.244Z,90.643311
2019-03-30T02:01:59.088Z,90.435791
2019-03-30T02:02:10.925Z,90.228271
2019-03-30T02:02:22.759Z,90.228271
2019-03-30T02:02:34.589Z,90.124512
2019-03-30T02:02:46.433Z,90.124512
2019-03-30T02:02:58.252Z,90.020752
2019-03-30T02:03:10.085Z,89.916992
2019-03-30T02:03:21.919Z,89.916992
2019-03-30T02:03:33.747Z,89.813232
2019-03-30T02:03:45.580Z,89.709473
2019-03-30T02:03:57.406Z,89.709473
2019-03-30T02:04:09.242Z,89.605713
2019-03-30T02:04:21.073Z,89.501953
2019-03-30T02:04:32.907Z,89.501953
2019-03-30T02:04:44.741Z,89.440918
2019-03-30T02:04:56.571Z,89.440918
2019-03-30T02:05:08.406Z,89.440918
2019-03-30T02:05:20.236Z,89.440918
2019-03-30T02:05:32.077Z,89.337158
2019-03-30T02:05:43.907Z,89.337158
2019-03-30T02:05:55.735Z,89.337158
2019-03-30T02:06:07.565Z,89.233398
2019-03-30T02:06:19.397Z,89.233398
2019-03-30T02:06:31.229Z,89.129639
2019-03-30T02:06:43.212Z,89.129639
2019-03-30T02:06:55.045Z,89.129639
2019-03-30T02:07:06.879Z,89.129639
2019-03-30T02:07:18.716Z,89.233398
2019-03-30T02:07:30.552Z,89.233398
2019-03-30T02:07:42.390Z,89.337158
2019-03-30T02:07:54.209Z,89.337158
2019-03-30T02:08:06.041Z,89.337158
2019-03-30T02:08:17.874Z,89.337158
2019-03-30T02:08:29.705Z,89.337158
2019-03-30T02:08:41.541Z,89.337158
2019-03-30T02:08:53.383Z,89.233398
2019-03-30T02:09:05.214Z,89.233398
2019-03-30T02:09:17.043Z,89.233398
2019-03-30T02:09:28.880Z,89.233398
2019-03-30T02:09:40.709Z,89.233398
2019-03-30T02:09:52.545Z,89.129639
2019-03-30T02:10:04.377Z,89.025879
2019-03-30T02:10:16.214Z,89.0625
2019-03-30T02:10:28.047Z,88.95874
2019-03-30T02:10:39.880Z,88.95874
2019-03-30T02:10:51.708Z,88.95874
2019-03-30T02:11:03.545Z,88.85498
2019-03-30T02:11:15.387Z,88.85498
2019-03-30T02:11:27.218Z,88.95874
2019-03-30T02:11:39.052Z,89.0625
2019-03-30T02:11:50.933Z,89.0625
2019-03-30T02:12:02.770Z,89.16626
2019-03-30T02:12:14.587Z,89.27002
2019-03-30T02:12:26.422Z,89.27002
2019-03-30T02:12:38.263Z,89.416504
2019-03-30T02:12:50.098Z,89.416504
2019-03-30T02:13:01.940Z,89.520264
2019-03-30T02:13:13.769Z,89.624023
2019-03-30T02:13:25.601Z,89.624023
2019-03-30T02:13:37.442Z,89.727783
2019-03-30T02:13:49.276Z,89.831543
2019-03-30T02:14:01.107Z,89.935303
2019-03-30T02:14:12.938Z,90.039062
2019-03-30T02:14:24.770Z,90.142822
2019-03-30T02:14:36.600Z,90.246582
2019-03-30T02:14:48.430Z,90.246582
2019-03-30T02:15:00.363Z,90.350342
2019-03-30T02:15:12.090Z,90.350342
2019-03-30T02:15:23.918Z,90.454102
2019-03-30T02:15:35.746Z,90.454102
2019-03-30T02:15:47.580Z,90.454102
2019-03-30T02:15:59.410Z,90.557861
2019-03-30T02:16:11.243Z,90.661621